Guaracai, Brazil
Current Conditions -  °F | °C
As of 6:40 AM on Sunday 26 Oct 2014 (Local Time) from SBDN Reporting Station
Haze Haze  
Wind Chill: 68°   Ceiling: 1000
Heat Index: 68°   Visibility: 2.5mi
Dew Point: 66°   Wind: 6mph
Humidity: 94%   Direction: 90°E
Pressure: 29.91"   Gusts: NA
Location:  21.03°S, 51.21°W
Report Text: SBDN 260840Z 09005KT 4000 BR BKN010 20/19 Q1013
Loading
Personal Weather Stations






























Interactive Weather Map
Tropical Storm Tracking
New forecast layout! Learn more

10-Day Weather Forecast

Advertisements
Track Severe Weather on mobile